Time;durP1;ratioP1;P1;durP2;ratioP2;P2;SDS_P1;SDS_P2;PMS_P1;PMS_P2;Temp;Humidity;BMP_temperature;BMP_pressure;BME280_temperature;BME280_humidity;BME280_pressure;Samples;Min_cycle;Max_cycle;Signal;HPM_P1;HPM_P2
2021/08/10 00:00:45;;;;;;;1.10;0.40;;;18.80;81.90;;;;;;5055905;28;20028;-77
2021/08/10 00:03:11;;;;;;;0.77;0.45;;;18.90;82.00;;;;;;5055802;28;20025;-77
2021/08/10 00:05:37;;;;;;;1.00;0.40;;;18.80;81.90;;;;;;5070227;28;20033;-76
2021/08/10 00:08:03;;;;;;;0.85;0.40;;;18.80;82.00;;;;;;5055622;28;20028;-76
2021/08/10 00:10:28;;;;;;;0.63;0.40;;;18.80;82.20;;;;;;5055524;28;20032;-77
2021/08/10 00:12:54;;;;;;;0.95;0.50;;;18.80;82.20;;;;;;5054818;28;20021;-76
2021/08/10 00:15:20;;;;;;;0.70;0.40;;;18.80;82.10;;;;;;5074452;28;20028;-77
2021/08/10 00:17:46;;;;;;;0.55;0.30;;;18.70;82.20;;;;;;5075503;28;20395;-76
2021/08/10 00:20:12;;;;;;;0.75;0.40;;;18.70;82.50;;;;;;5074024;28;20096;-77
2021/08/10 00:22:38;;;;;;;0.73;0.40;;;18.60;82.80;;;;;;5073996;28;20503;-76
2021/08/10 00:25:04;;;;;;;0.90;0.50;;;18.50;83.30;;;;;;5055388;28;20044;-76
2021/08/10 00:27:30;;;;;;;0.55;0.30;;;18.50;83.00;;;;;;5055958;28;20021;-77
2021/08/10 00:29:56;;;;;;;0.90;0.50;;;18.60;83.00;;;;;;5055214;28;20036;-76
2021/08/10 00:32:26;;;;;;;0.70;0.40;;;18.60;82.80;;;;;;5054248;28;20066;-76
2021/08/10 00:34:53;;;;;;;0.40;0.30;;;18.70;82.50;;;;;;5054708;28;20143;-76
2021/08/10 00:37:20;;;;;;;1.00;0.55;;;18.70;82.40;;;;;;5064306;28;20021;-77
2021/08/10 00:39:46;;;;;;;0.93;0.40;;;18.80;82.20;;;;;;5075304;28;20032;-77
2021/08/10 00:42:12;;;;;;;0.68;0.38;;;18.70;82.40;;;;;;5075037;28;20023;-77
2021/08/10 00:44:38;;;;;;;0.75;0.40;;;18.70;82.50;;;;;;5075481;28;20033;-76
2021/08/10 00:47:04;;;;;;;0.60;0.40;;;18.80;82.30;;;;;;5073527;28;20354;-77
2021/08/10 00:49:30;;;;;;;0.90;0.50;;;18.80;81.90;;;;;;5095583;28;20371;-76
2021/08/10 00:51:56;;;;;;;0.93;0.40;;;18.80;81.70;;;;;;5076422;28;20029;-77
2021/08/10 00:54:23;;;;;;;0.68;0.47;;;18.70;82.30;;;;;;5056471;28;20476;-76
2021/08/10 00:56:51;;;;;;;0.93;0.50;;;18.70;82.30;;;;;;5059284;28;20040;-76
2021/08/10 00:59:16;;;;;;;0.73;0.50;;;18.60;82.60;;;;;;5074509;28;20032;-76
2021/08/10 01:01:42;;;;;;;1.35;0.60;;;18.50;82.90;;;;;;5059281;28;20021;-76
2021/08/10 01:04:09;;;;;;;0.82;0.47;;;18.50;83.10;;;;;;5059181;28;20114;-76
2021/08/10 01:07:02;;;;;;;1.45;0.40;;;18.50;82.90;;;;;;5059048;28;20021;-76
2021/08/10 01:09:34;;;;;;;0.60;0.50;;;18.50;83.20;;;;;;5073211;28;20032;-76
2021/08/10 01:12:13;;;;;;;0.70;0.40;;;18.60;82.70;;;;;;5057816;28;20040;-76
2021/08/10 01:14:39;;;;;;;0.57;0.40;;;18.60;82.30;;;;;;5058729;28;20110;-76
2021/08/10 01:17:27;;;;;;;1.02;0.50;;;18.60;83.00;;;;;;5058694;28;20029;-76
2021/08/10 01:20:05;;;;;;;1.08;0.50;;;18.50;83.20;;;;;;5076796;28;20036;-76
2021/08/10 01:22:33;;;;;;;0.60;0.43;;;18.50;83.00;;;;;;5078658;28;20032;-76
2021/08/10 01:25:27;;;;;;;0.60;0.30;;;18.50;83.00;;;;;;5078740;28;20028;-76
2021/08/10 01:28:08;;;;;;;1.00;0.50;;;18.50;83.00;;;;;;5076326;28;20060;-77
2021/08/10 01:31:24;;;;;;;0.60;0.30;;;18.60;83.10;;;;;;5077416;28;20066;-76
2021/08/10 01:33:55;;;;;;;0.43;0.30;;;18.60;82.80;;;;;;4996719;28;20049;-76
2021/08/10 01:36:22;;;;;;;1.23;0.55;;;18.60;82.60;;;;;;4980573;28;20023;-76
2021/08/10 01:38:54;;;;;;;1.48;0.60;;;18.60;82.80;;;;;;5033448;28;20036;-77
2021/08/10 01:41:21;;;;;;;0.90;0.40;;;18.50;83.00;;;;;;5076119;28;20098;-77
2021/08/10 01:43:48;;;;;;;0.63;0.40;;;18.50;82.90;;;;;;5076810;28;20074;-76
2021/08/10 01:46:14;;;;;;;0.75;0.50;;;18.60;82.50;;;;;;5077130;28;20035;-76
2021/08/10 01:48:41;;;;;;;0.88;0.45;;;18.50;82.90;;;;;;5077045;28;20040;-76
2021/08/10 01:51:07;;;;;;;1.30;0.47;;;18.50;82.90;;;;;;5076647;28;20394;-77
2021/08/10 01:53:33;;;;;;;0.70;0.47;;;18.50;82.90;;;;;;5076180;28;20033;-76
2021/08/10 01:56:00;;;;;;;0.50;0.40;;;18.50;83.20;;;;;;5077053;28;20055;-76
2021/08/10 01:58:27;;;;;;;0.90;0.60;;;18.50;83.10;;;;;;5078043;28;20063;-76
2021/08/10 02:00:55;;;;;;;1.30;0.55;;;18.50;83.10;;;;;;5076851;28;20398;-76
2021/08/10 02:03:23;;;;;;;1.20;0.50;;;18.60;83.00;;;;;;5062181;28;20125;-76
2021/08/10 02:05:49;;;;;;;0.68;0.40;;;18.60;82.90;;;;;;5057447;28;20487;-77
2021/08/10 02:08:15;;;;;;;0.70;0.40;;;18.50;83.30;;;;;;5056566;28;20029;-77
2021/08/10 02:10:44;;;;;;;0.90;0.60;;;18.50;83.10;;;;;;5057645;28;20092;-77
2021/08/10 02:13:12;;;;;;;0.90;0.40;;;18.50;83.30;;;;;;5069503;28;20155;-76
2021/08/10 02:15:40;;;;;;;1.15;0.68;;;18.50;83.40;;;;;;5057788;28;20063;-76
2021/08/10 02:18:06;;;;;;;1.42;0.63;;;18.50;83.20;;;;;;5058308;28;20079;-76
2021/08/10 02:20:34;;;;;;;1.33;0.50;;;18.40;83.30;;;;;;5057905;28;20025;-76
2021/08/10 02:23:00;;;;;;;0.60;0.40;;;18.40;83.60;;;;;;5057636;28;20365;-76
2021/08/10 02:25:27;;;;;;;0.75;0.45;;;18.40;83.80;;;;;;5057653;28;20025;-76
2021/08/10 02:27:56;;;;;;;0.63;0.40;;;18.30;83.70;;;;;;5065685;28;20043;-76
2021/08/10 02:30:35;;;;;;;0.88;0.50;;;18.30;83.90;;;;;;5055978;28;20491;-76
2021/08/10 02:33:07;;;;;;;0.50;0.30;;;18.30;83.90;;;;;;5057293;28;20021;-77
2021/08/10 02:35:33;;;;;;;0.70;0.50;;;18.40;83.70;;;;;;5056402;28;20025;-77
2021/08/10 02:38:03;;;;;;;1.40;0.60;;;18.40;83.70;;;;;;5056162;28;20431;-76
2021/08/10 02:40:29;;;;;;;0.80;0.43;;;18.50;83.40;;;;;;5062141;28;20050;-77
2021/08/10 02:42:58;;;;;;;0.80;0.57;;;18.50;83.20;;;;;;5075768;28;20086;-76
2021/08/10 02:45:25;;;;;;;1.23;0.60;;;18.50;83.40;;;;;;5071746;28;20040;-77
2021/08/10 02:47:56;;;;;;;0.77;0.40;;;18.40;83.30;;;;;;5070638;28;20028;-76
2021/08/10 02:50:23;;;;;;;1.17;0.65;;;18.30;83.60;;;;;;5097286;28;20562;-77
2021/08/10 02:52:48;;;;;;;1.08;0.50;;;18.30;83.60;;;;;;5094596;28;20137;-76
2021/08/10 02:55:18;;;;;;;0.90;0.57;;;18.20;83.80;;;;;;5056901;28;20021;-76
2021/08/10 02:58:11;;;;;;;1.13;0.70;;;18.20;83.80;;;;;;5057059;28;20167;-77
2021/08/10 03:00:45;;;;;;;1.30;0.60;;;18.20;83.70;;;;;;5055632;28;20033;-76
2021/08/10 03:03:16;;;;;;;1.35;0.60;;;18.20;83.70;;;;;;5056756;28;20061;-76
2021/08/10 03:05:43;;;;;;;0.70;0.50;;;18.10;84.00;;;;;;5057017;28;20024;-76
2021/08/10 03:08:17;;;;;;;0.88;0.50;;;18.10;83.90;;;;;;5071940;28;20033;-76
2021/08/10 03:10:43;;;;;;;1.38;0.60;;;18.10;83.80;;;;;;5056546;28;20032;-76
2021/08/10 03:13:10;;;;;;;0.82;0.60;;;18.10;83.90;;;;;;5056642;28;20131;-76
2021/08/10 03:15:39;;;;;;;1.00;0.50;;;18.00;84.20;;;;;;5076480;28;20016;-76
2021/08/10 03:18:11;;;;;;;1.27;0.60;;;18.10;84.00;;;;;;5070943;28;20036;-76
2021/08/10 03:20:45;;;;;;;0.70;0.50;;;18.20;83.70;;;;;;5055311;28;20128;-76
2021/08/10 03:23:18;;;;;;;1.08;0.63;;;18.00;84.20;;;;;;5056665;28;20040;-76
2021/08/10 03:25:45;;;;;;;0.90;0.50;;;18.00;84.50;;;;;;5056524;28;20033;-77
2021/08/10 03:28:15;;;;;;;0.90;0.60;;;18.10;84.30;;;;;;5056304;28;20032;-76
2021/08/10 03:30:42;;;;;;;1.23;0.70;;;18.10;84.30;;;;;;5056236;28;20516;-77
2021/08/10 03:33:08;;;;;;;1.35;0.70;;;18.00;84.30;;;;;;5056185;28;20407;-77
2021/08/10 03:35:36;;;;;;;0.77;0.47;;;18.10;84.20;;;;;;5056197;28;20539;-76
2021/08/10 03:38:01;;;;;;;0.63;0.45;;;18.00;84.30;;;;;;5056542;28;20112;-76
2021/08/10 03:40:27;;;;;;;0.65;0.50;;;18.00;84.40;;;;;;5071705;28;20063;-76
2021/08/10 03:42:54;;;;;;;1.23;0.70;;;18.00;84.70;;;;;;5075922;28;20129;-76
2021/08/10 03:45:22;;;;;;;1.10;0.63;;;17.90;84.80;;;;;;5087991;28;20038;-76
2021/08/10 03:47:49;;;;;;;0.70;0.52;;;17.90;84.90;;;;;;5072741;28;20029;-76
2021/08/10 03:50:14;;;;;;;1.13;0.50;;;17.90;85.10;;;;;;5055811;28;20021;-77
2021/08/10 03:52:40;;;;;;;0.90;0.55;;;17.90;85.00;;;;;;5054568;28;20589;-76
2021/08/10 03:55:08;;;;;;;1.35;0.68;;;17.80;85.00;;;;;;5056306;28;20052;-76
2021/08/10 03:57:36;;;;;;;0.65;0.43;;;17.80;85.60;;;;;;5080541;28;20031;-76
2021/08/10 04:00:05;;;;;;;1.00;0.50;;;17.90;85.30;;;;;;5096050;28;20107;-77
2021/08/10 04:02:32;;;;;;;1.10;0.50;;;18.00;84.90;;;;;;5068847;28;20060;-76
2021/08/10 04:04:57;;;;;;;0.82;0.50;;;17.90;84.80;;;;;;5055977;28;20071;-76
2021/08/10 04:07:25;;;;;;;0.77;0.52;;;18.00;85.00;;;;;;5055696;28;20033;-77
2021/08/10 04:09:51;;;;;;;1.52;0.70;;;17.90;85.00;;;;;;5059389;28;20062;-77
2021/08/10 04:12:17;;;;;;;1.17;0.50;;;17.90;84.80;;;;;;5075769;28;20028;-76
2021/08/10 04:14:43;;;;;;;1.10;0.60;;;17.90;85.00;;;;;;5074184;28;20027;-76
2021/08/10 04:17:09;;;;;;;0.95;0.60;;;17.80;85.20;;;;;;5069990;28;20390;-76
2021/08/10 04:19:52;;;;;;;1.13;0.70;;;17.90;85.20;;;;;;5054382;28;21547;-76
2021/08/10 04:22:19;;;;;;;0.65;0.47;;;17.90;85.10;;;;;;5054347;28;20033;-76
2021/08/10 04:24:45;;;;;;;1.05;0.70;;;17.90;84.90;;;;;;5054597;28;20032;-76
2021/08/10 04:27:13;;;;;;;1.63;0.70;;;17.90;84.90;;;;;;5054377;28;20033;-76
2021/08/10 04:29:38;;;;;;;1.80;0.75;;;17.90;85.00;;;;;;5053729;28;20025;-76
2021/08/10 04:32:05;;;;;;;0.80;0.50;;;17.80;85.20;;;;;;5069035;28;20119;-77
2021/08/10 04:34:31;;;;;;;0.82;0.60;;;17.80;85.20;;;;;;5074164;28;20021;-76
2021/08/10 04:36:57;;;;;;;0.98;0.60;;;18.00;84.90;;;;;;5075402;28;20031;-76
2021/08/10 04:39:26;;;;;;;1.23;0.70;;;17.90;85.00;;;;;;5072327;28;20039;-77
2021/08/10 04:41:55;;;;;;;0.95;0.50;;;17.80;85.00;;;;;;5070296;28;20029;-77
2021/08/10 04:44:21;;;;;;;1.48;0.57;;;17.70;84.90;;;;;;5068344;28;20045;-76
2021/08/10 04:46:48;;;;;;;0.98;0.52;;;17.80;85.10;;;;;;5053981;28;20442;-76
2021/08/10 04:49:14;;;;;;;1.58;0.65;;;17.80;84.80;;;;;;5055076;28;20036;-76
2021/08/10 04:51:39;;;;;;;0.90;0.50;;;17.90;84.80;;;;;;5055291;28;20100;-76
2021/08/10 04:54:05;;;;;;;0.65;0.50;;;17.80;84.90;;;;;;5055207;28;20029;-76
2021/08/10 04:56:31;;;;;;;0.80;0.50;;;17.80;85.00;;;;;;5054017;28;20075;-77
2021/08/10 04:58:57;;;;;;;1.02;0.60;;;17.80;85.20;;;;;;5055050;28;20033;-77
2021/08/10 05:01:23;;;;;;;1.35;0.50;;;17.70;85.20;;;;;;5053685;28;20166;-76
2021/08/10 05:03:49;;;;;;;1.23;0.70;;;17.80;85.30;;;;;;5054905;28;20071;-77
2021/08/10 05:06:14;;;;;;;1.02;0.68;;;17.80;85.30;;;;;;5053624;28;20025;-76
2021/08/10 05:08:40;;;;;;;1.55;0.60;;;17.80;85.20;;;;;;5053814;28;20048;-76
2021/08/10 05:11:14;;;;;;;1.73;0.55;;;17.80;85.30;;;;;;5069459;28;20029;-76
2021/08/10 05:13:40;;;;;;;1.20;0.60;;;17.80;85.00;;;;;;5053665;28;20052;-76
2021/08/10 05:16:06;;;;;;;1.23;0.70;;;17.80;85.20;;;;;;5054960;28;20479;-76
2021/08/10 05:18:32;;;;;;;0.88;0.65;;;17.80;85.40;;;;;;5053521;28;20499;-76
2021/08/10 05:20:58;;;;;;;1.42;0.70;;;17.80;85.20;;;;;;5053808;28;20102;-76
2021/08/10 05:23:24;;;;;;;1.13;0.65;;;17.80;85.40;;;;;;5053622;28;20029;-76
2021/08/10 05:25:50;;;;;;;1.30;0.70;;;17.80;85.10;;;;;;5054864;28;20025;-76
2021/08/10 05:28:15;;;;;;;0.90;0.52;;;17.80;85.20;;;;;;5053488;28;20024;-76
2021/08/10 05:30:41;;;;;;;1.10;0.60;;;17.80;84.80;;;;;;5054938;28;20411;-76
2021/08/10 05:33:07;;;;;;;1.52;0.70;;;17.80;85.20;;;;;;5061817;28;20030;-77
2021/08/10 05:35:32;;;;;;;0.93;0.50;;;17.80;85.20;;;;;;5095100;28;20487;-76
2021/08/10 05:37:58;;;;;;;1.05;0.60;;;17.80;85.10;;;;;;5074237;28;20032;-76
2021/08/10 05:40:24;;;;;;;0.80;0.40;;;17.90;85.10;;;;;;5060227;28;20025;-76
2021/08/10 05:42:49;;;;;;;0.70;0.45;;;17.80;84.90;;;;;;5072747;28;20067;-77
2021/08/10 05:45:15;;;;;;;1.10;0.60;;;17.90;85.00;;;;;;5057061;28;20025;-76
2021/08/10 05:47:41;;;;;;;0.90;0.50;;;17.90;84.90;;;;;;5058226;28;20037;-76
2021/08/10 05:50:07;;;;;;;1.08;0.65;;;17.90;85.00;;;;;;5057456;28;20029;-76
2021/08/10 05:52:33;;;;;;;0.98;0.40;;;18.00;84.90;;;;;;5073799;28;20036;-76
2021/08/10 05:54:58;;;;;;;0.93;0.50;;;17.90;84.90;;;;;;5063828;28;20025;-76
2021/08/10 05:57:24;;;;;;;1.00;0.60;;;18.00;84.70;;;;;;5056830;28;20029;-76
2021/08/10 05:59:50;;;;;;;0.93;0.50;;;18.10;84.60;;;;;;5056639;28;20048;-76
2021/08/10 06:02:15;;;;;;;0.77;0.50;;;18.10;84.90;;;;;;5056694;28;20391;-76
2021/08/10 06:04:41;;;;;;;1.08;0.52;;;18.10;84.80;;;;;;5056472;28;20514;-76
2021/08/10 06:07:07;;;;;;;1.25;0.55;;;18.20;84.90;;;;;;5056799;28;20083;-76
2021/08/10 06:09:33;;;;;;;1.75;0.63;;;18.20;84.80;;;;;;5057910;28;20079;-76
2021/08/10 06:11:59;;;;;;;0.88;0.50;;;18.30;84.60;;;;;;5056391;28;20059;-76
2021/08/10 06:14:25;;;;;;;1.42;0.60;;;18.30;84.50;;;;;;5056363;28;20112;-77
2021/08/10 06:16:51;;;;;;;1.00;0.50;;;18.20;84.50;;;;;;5057550;28;20060;-76
2021/08/10 06:19:17;;;;;;;1.05;0.52;;;18.30;84.50;;;;;;5057725;28;20028;-76
2021/08/10 06:21:43;;;;;;;1.08;0.60;;;18.30;84.40;;;;;;5071010;28;20127;-76
2021/08/10 06:24:08;;;;;;;0.85;0.50;;;18.30;84.10;;;;;;5077847;28;20055;-76
2021/08/10 06:26:34;;;;;;;1.40;0.60;;;18.30;84.30;;;;;;5076179;28;20109;-77
2021/08/10 06:29:00;;;;;;;0.95;0.50;;;18.30;84.80;;;;;;5076461;28;20099;-76
2021/08/10 06:31:26;;;;;;;0.85;0.47;;;18.30;84.50;;;;;;5071863;28;20123;-76
2021/08/10 06:33:52;;;;;;;1.15;0.45;;;18.30;84.60;;;;;;5065055;28;20019;-76
2021/08/10 06:36:17;;;;;;;1.65;0.70;;;18.30;84.80;;;;;;5077372;28;20424;-76
2021/08/10 06:38:43;;;;;;;0.65;0.45;;;18.30;84.90;;;;;;5076239;28;20024;-77
2021/08/10 06:41:08;;;;;;;0.90;0.60;;;18.30;84.80;;;;;;5068291;28;20033;-76
2021/08/10 06:43:34;;;;;;;1.08;0.60;;;18.30;84.30;;;;;;5055962;28;20095;-76
2021/08/10 06:46:01;;;;;;;1.15;0.60;;;18.50;83.80;;;;;;5057137;28;20102;-76
2021/08/10 06:48:27;;;;;;;2.00;0.57;;;18.80;83.60;;;;;;5073731;28;20020;-76
2021/08/10 06:50:52;;;;;;;1.60;0.60;;;19.10;82.50;;;;;;5073115;28;20036;-77
2021/08/10 06:53:19;;;;;;;0.60;0.40;;;19.30;81.30;;;;;;5056046;28;20505;-77
2021/08/10 06:55:45;;;;;;;1.63;0.50;;;19.20;82.10;;;;;;5066271;28;20043;-76
2021/08/10 06:58:11;;;;;;;1.38;0.50;;;19.10;82.40;;;;;;5057047;28;20033;-77
2021/08/10 07:00:39;;;;;;;0.85;0.38;;;19.10;82.30;;;;;;5056879;28;20032;-76
2021/08/10 07:03:04;;;;;;;0.65;0.35;;;19.00;82.20;;;;;;5059250;28;20166;-77
2021/08/10 07:05:30;;;;;;;1.02;0.50;;;19.00;82.40;;;;;;5072125;28;20029;-76
2021/08/10 07:07:56;;;;;;;0.57;0.32;;;18.90;82.50;;;;;;5072215;28;20031;-76
2021/08/10 07:10:21;;;;;;;1.67;0.60;;;19.00;82.80;;;;;;5057134;28;20110;-76
2021/08/10 07:12:48;;;;;;;1.15;0.50;;;19.20;82.50;;;;;;5073893;28;20449;-76
2021/08/10 07:15:14;;;;;;;0.98;0.43;;;19.20;82.40;;;;;;5075352;28;20036;-77
2021/08/10 07:17:40;;;;;;;0.80;0.52;;;19.30;82.20;;;;;;5076813;28;20032;-76
2021/08/10 07:20:06;;;;;;;0.68;0.40;;;19.30;82.20;;;;;;5076526;28;20054;-77
2021/08/10 07:22:31;;;;;;;1.30;0.40;;;19.30;82.00;;;;;;5057147;28;20037;-76
2021/08/10 07:24:57;;;;;;;1.15;0.40;;;19.40;81.70;;;;;;5055045;28;20502;-77
2021/08/10 07:27:23;;;;;;;0.65;0.38;;;19.50;81.70;;;;;;5056748;28;20395;-76
2021/08/10 07:29:48;;;;;;;0.70;0.50;;;19.40;81.40;;;;;;5054807;28;20463;-77
2021/08/10 07:32:14;;;;;;;0.60;0.32;;;19.50;81.70;;;;;;5059656;28;20023;-77
2021/08/10 07:34:39;;;;;;;1.15;0.60;;;19.60;81.00;;;;;;5093569;28;20019;-77
2021/08/10 07:37:05;;;;;;;0.50;0.30;;;19.70;80.80;;;;;;5063899;28;20032;-76
2021/08/10 07:39:31;;;;;;;0.50;0.30;;;19.70;80.90;;;;;;5056309;28;20029;-77
2021/08/10 07:41:56;;;;;;;0.60;0.30;;;19.60;81.20;;;;;;5069470;28;20025;-77
2021/08/10 07:44:22;;;;;;;0.88;0.50;;;19.70;81.00;;;;;;5056203;28;20057;-77
2021/08/10 07:46:48;;;;;;;0.93;0.40;;;19.70;81.40;;;;;;5054597;28;20124;-76
2021/08/10 07:49:14;;;;;;;0.82;0.50;;;19.70;81.60;;;;;;5056249;28;20028;-77
2021/08/10 07:51:39;;;;;;;0.52;0.30;;;19.70;81.50;;;;;;5055761;28;20021;-77
2021/08/10 07:54:05;;;;;;;0.40;0.30;;;19.60;81.50;;;;;;5055903;28;20055;-77
2021/08/10 07:56:30;;;;;;;0.55;0.30;;;19.70;81.50;;;;;;5055755;28;20078;-77
2021/08/10 07:58:56;;;;;;;0.77;0.40;;;19.80;81.60;;;;;;5055819;28;20103;-77
2021/08/10 08:01:22;;;;;;;0.68;0.38;;;19.80;81.20;;;;;;5055658;28;20029;-77
2021/08/10 08:03:48;;;;;;;0.60;0.30;;;20.10;80.70;;;;;;5055199;28;20029;-77
2021/08/10 08:06:13;;;;;;;0.60;0.40;;;20.30;81.00;;;;;;5055871;28;20021;-77
2021/08/10 08:08:40;;;;;;;0.20;0.20;;;20.30;79.90;;;;;;5055492;28;20025;-76
2021/08/10 08:11:06;;;;;;;0.90;0.40;;;20.50;79.70;;;;;;5055535;28;20483;-77
2021/08/10 08:13:32;;;;;;;0.50;0.30;;;20.80;78.60;;;;;;5055666;28;20036;-77
2021/08/10 08:15:58;;;;;;;0.38;0.20;;;21.10;77.70;;;;;;5055619;28;20032;-76
2021/08/10 08:18:24;;;;;;;0.55;0.25;;;21.40;77.40;;;;;;5055412;28;20029;-77
2021/08/10 08:20:50;;;;;;;0.50;0.32;;;21.60;76.60;;;;;;5055602;28;20098;-77
2021/08/10 08:23:17;;;;;;;0.40;0.20;;;21.80;76.10;;;;;;5055478;28;20111;-77
2021/08/10 08:25:43;;;;;;;0.57;0.30;;;22.00;75.20;;;;;;5071299;28;20027;-77
2021/08/10 08:28:10;;;;;;;0.30;0.20;;;22.20;75.20;;;;;;5075743;28;20024;-77
2021/08/10 08:30:41;;;;;;;0.40;0.20;;;22.10;74.10;;;;;;5072710;28;20046;-77
2021/08/10 08:33:08;;;;;;;0.40;0.20;;;21.90;74.30;;;;;;5079444;28;20016;-77
2021/08/10 08:35:34;;;;;;;0.60;0.30;;;21.90;74.70;;;;;;5095652;28;20455;-77
2021/08/10 08:38:00;;;;;;;0.45;0.30;;;21.90;74.80;;;;;;5095590;28;20024;-77
2021/08/10 08:40:26;;;;;;;0.32;0.15;;;21.80;75.00;;;;;;5078526;28;20971;-77
2021/08/10 08:42:52;;;;;;;0.45;0.28;;;21.80;74.80;;;;;;5075187;28;20056;-76
2021/08/10 08:45:18;;;;;;;0.47;0.20;;;21.70;75.10;;;;;;5071217;28;20395;-77
2021/08/10 08:47:51;;;;;;;0.30;0.20;;;21.70;75.60;;;;;;5055276;28;20037;-77
2021/08/10 08:50:21;;;;;;;0.30;0.10;;;22.30;73.40;;;;;;5065815;28;20060;-77
2021/08/10 08:52:50;;;;;;;;;;;22.30;72.80;;;;;;5075939;28;20028;-77
2021/08/10 08:55:16;;;;;;;0.22;0.20;;;22.60;72.70;;;;;;5074112;28;19904;-77
2021/08/10 08:57:42;;;;;;;0.10;0.10;;;22.90;72.10;;;;;;5061640;28;20428;-77
2021/08/10 09:00:11;;;;;;;0.50;0.20;;;22.80;71.80;;;;;;5055078;28;20025;-77
2021/08/10 09:02:37;;;;;;;0.65;0.25;;;22.70;71.80;;;;;;5054957;28;20064;-77
2021/08/10 09:05:05;;;;;;;0.50;0.20;;;22.30;72.40;;;;;;5053922;28;20498;-77
2021/08/10 09:07:30;;;;;;;0.40;0.20;;;22.10;73.70;;;;;;5055241;28;20049;-77
2021/08/10 09:10:08;;;;;;;0.30;0.10;;;21.80;75.00;;;;;;5058714;28;20031;-77
2021/08/10 09:12:45;;;;;;;0.57;0.20;;;21.70;74.90;;;;;;5075114;28;20055;-77
2021/08/10 09:15:28;;;;;;;0.35;0.10;;;21.50;75.60;;;;;;5076022;28;20070;-77
2021/08/10 09:17:54;;;;;;;0.20;0.10;;;21.50;76.00;;;;;;5078701;28;20028;-77
2021/08/10 09:20:22;;;;;;;0.40;0.20;;;21.70;75.90;;;;;;5068499;28;20036;-77
2021/08/10 09:22:54;;;;;;;0.55;0.20;;;21.80;76.00;;;;;;5058707;28;20053;-76
2021/08/10 09:25:21;;;;;;;0.75;0.20;;;21.70;76.30;;;;;;5075319;28;20034;-76
2021/08/10 09:27:46;;;;;;;0.32;0.17;;;21.80;75.80;;;;;;5067187;28;20036;-76
2021/08/10 09:30:24;;;;;;;0.52;0.22;;;22.20;75.10;;;;;;5069826;28;20027;-77
2021/08/10 09:32:53;;;;;;;0.22;0.13;;;22.40;75.30;;;;;;5098984;28;20028;-77
2021/08/10 09:35:21;;;;;;;0.32;0.20;;;22.50;74.80;;;;;;5094504;28;20612;-77
2021/08/10 09:38:05;;;;;;;0.13;0.10;;;22.60;73.80;;;;;;5058544;28;20040;-77
2021/08/10 09:40:35;;;;;;;0.20;0.10;;;22.70;73.20;;;;;;5063424;28;20029;-77
2021/08/10 09:43:22;;;;;;;0.20;0.10;;;22.60;72.70;;;;;;5089286;28;20052;-77
2021/08/10 09:45:48;;;;;;;0.13;0.10;;;22.40;72.90;;;;;;5061819;28;20033;-77
2021/08/10 09:48:15;;;;;;;0.75;0.17;;;22.40;74.00;;;;;;5058235;28;20032;-77
2021/08/10 09:50:42;;;;;;;0.20;0.10;;;22.50;73.70;;;;;;5058198;28;20029;-77
2021/08/10 09:53:21;;;;;;;0.10;0.10;;;22.60;72.60;;;;;;5057931;28;20048;-77
2021/08/10 09:55:57;;;;;;;0.10;0.10;;;22.80;71.60;;;;;;5058270;28;20087;-77
2021/08/10 09:58:23;;;;;;;0.22;0.10;;;22.80;70.80;;;;;;5058270;28;20025;-77
2021/08/10 10:00:50;;;;;;;0.15;0.08;;;22.80;71.30;;;;;;5065795;28;20101;-77
2021/08/10 10:03:21;;;;;;;0.10;0.10;;;23.20;71.20;;;;;;5076450;28;20070;-77
2021/08/10 10:05:48;;;;;;;0.00;0.00;;;23.30;70.40;;;;;;5076971;28;20039;-77
2021/08/10 10:08:14;;;;;;;0.10;0.05;;;23.30;70.00;;;;;;5061436;28;20028;-77
2021/08/10 10:10:42;;;;;;;0.10;0.10;;;23.60;69.30;;;;;;5057816;28;20029;-77
2021/08/10 10:13:10;;;;;;;0.10;0.10;;;23.30;69.70;;;;;;5057655;28;20029;-76
2021/08/10 10:15:38;;;;;;;0.10;0.10;;;22.90;69.80;;;;;;5057789;28;20021;-77
2021/08/10 10:18:05;;;;;;;0.10;0.10;;;23.00;70.30;;;;;;5057695;28;20567;-77
2021/08/10 10:20:32;;;;;;;0.10;0.10;;;23.30;68.80;;;;;;5095925;28;20154;-77
2021/08/10 10:22:58;;;;;;;0.10;0.10;;;23.70;68.50;;;;;;5068119;28;20040;-77
2021/08/10 10:25:27;;;;;;;0.10;0.10;;;23.70;68.70;;;;;;5057805;28;20040;-77
2021/08/10 10:27:55;;;;;;;0.10;0.10;;;23.60;67.40;;;;;;5056264;28;20041;-77
2021/08/10 10:30:21;;;;;;;0.08;0.00;;;23.70;67.10;;;;;;5057402;28;20025;-77
2021/08/10 10:32:46;;;;;;;0.10;0.10;;;24.00;66.20;;;;;;5059457;28;20039;-77
2021/08/10 10:35:12;;;;;;;0.00;0.00;;;23.90;65.10;;;;;;5077745;28;20050;-77
2021/08/10 10:37:40;;;;;;;0.10;0.10;;;24.70;64.20;;;;;;5077488;28;20028;-77
2021/08/10 10:40:08;;;;;;;0.00;0.00;;;24.40;63.40;;;;;;5073723;28;20071;-77
2021/08/10 10:42:36;;;;;;;0.20;0.10;;;24.30;64.80;;;;;;5076058;28;20047;-77
2021/08/10 10:45:02;;;;;;;0.00;0.00;;;24.30;64.40;;;;;;5074667;28;20498;-77
2021/08/10 10:47:31;;;;;;;0.20;0.10;;;24.20;64.90;;;;;;5077353;28;20169;-77
2021/08/10 10:49:56;;;;;;;0.10;0.05;;;24.10;64.40;;;;;;5075708;28;20077;-77
2021/08/10 10:52:30;;;;;;;0.08;0.08;;;24.30;64.70;;;;;;5077186;28;20108;-77
2021/08/10 10:54:57;;;;;;;0.10;0.10;;;24.30;64.60;;;;;;5074226;28;20123;-77
2021/08/10 10:57:28;;;;;;;1.23;0.10;;;24.00;64.60;;;;;;5077099;28;20182;-77
2021/08/10 11:00:15;;;;;;;0.13;0.10;;;24.00;64.20;;;;;;5075643;28;20032;-77
2021/08/10 11:02:41;;;;;;;0.20;0.10;;;24.20;64.10;;;;;;5070309;28;20044;-77
2021/08/10 11:05:10;;;;;;;0.10;0.10;;;24.10;63.80;;;;;;5055650;28;20029;-77
2021/08/10 11:07:45;;;;;;;0.00;0.00;;;24.00;64.10;;;;;;5055562;28;20029;-77
2021/08/10 11:10:59;;;;;;;0.00;0.00;;;23.90;64.80;;;;;;5056771;28;20041;-77
2021/08/10 11:13:24;;;;;;;0.47;0.10;;;24.00;64.80;;;;;;5047549;28;20498;-77
2021/08/10 11:15:50;;;;;;;0.15;0.10;;;24.10;65.00;;;;;;5056642;28;20060;-77
2021/08/10 11:18:15;;;;;;;0.10;0.10;;;24.30;63.40;;;;;;5057273;28;20033;-77
2021/08/10 11:20:53;;;;;;;0.10;0.10;;;24.50;63.00;;;;;;5084352;28;20052;-77
2021/08/10 11:23:19;;;;;;;0.10;0.10;;;25.10;60.90;;;;;;5056435;28;20048;-77
2021/08/10 11:25:45;;;;;;;0.05;0.05;;;25.30;60.10;;;;;;5056639;28;20381;-77
2021/08/10 11:28:33;;;;;;;0.32;0.00;;;25.30;60.50;;;;;;5054967;28;20033;-77
2021/08/10 11:31:07;;;;;;;0.38;0.10;;;25.10;59.60;;;;;;5056360;28;20027;-77
2021/08/10 11:33:33;;;;;;;0.10;0.10;;;25.20;60.00;;;;;;5054665;28;20024;-77
2021/08/10 11:36:24;;;;;;;0.10;0.10;;;25.20;60.10;;;;;;5056277;28;20075;-77
2021/08/10 11:38:52;;;;;;;0.22;0.10;;;25.30;59.70;;;;;;5050220;28;20036;-77
2021/08/10 11:41:36;;;;;;;0.00;0.00;;;25.40;59.20;;;;;;5067801;28;20028;-77
2021/08/10 11:44:05;;;;;;;0.00;0.00;;;25.50;58.80;;;;;;5074783;28;20139;-77
2021/08/10 11:46:36;;;;;;;0.00;0.00;;;25.50;58.50;;;;;;5056117;28;20037;-77
2021/08/10 11:49:04;;;;;;;0.10;0.10;;;25.30;58.50;;;;;;5055818;28;20770;-77
2021/08/10 11:51:35;;;;;;;0.03;0.00;;;25.50;59.30;;;;;;5055835;28;20082;-77
2021/08/10 11:54:17;;;;;;;0.00;0.00;;;25.80;56.80;;;;;;5056036;28;20025;-77
2021/08/10 11:56:50;;;;;;;0.30;0.00;;;26.00;57.90;;;;;;5055923;28;20021;-77
2021/08/10 11:59:18;;;;;;;0.00;0.00;;;25.80;56.50;;;;;;5055946;28;20024;-77
2021/08/10 12:01:44;;;;;;;0.00;0.00;;;25.90;57.60;;;;;;5055643;28;20575;-77
2021/08/10 12:04:16;;;;;;;0.00;0.00;;;26.00;55.80;;;;;;5055812;28;20052;-77
2021/08/10 12:06:47;;;;;;;0.05;0.03;;;26.10;55.80;;;;;;5054344;28;20116;-77
2021/08/10 12:09:14;;;;;;;0.00;0.00;;;26.20;56.50;;;;;;5055576;28;20042;-77
2021/08/10 12:11:42;;;;;;;0.00;0.00;;;26.30;55.10;;;;;;5054208;28;20491;-77
2021/08/10 12:14:13;;;;;;;0.25;0.00;;;26.00;55.70;;;;;;5054344;28;20041;-77
2021/08/10 12:17:05;;;;;;;0.00;0.00;;;26.30;56.70;;;;;;5070981;28;20021;-77
2021/08/10 12:19:38;;;;;;;0.00;0.00;;;26.70;55.10;;;;;;5076881;28;20023;-77
2021/08/10 12:22:19;;;;;;;0.00;0.00;;;26.90;54.70;;;;;;5095899;28;20028;-77
2021/08/10 12:24:46;;;;;;;0.10;0.10;;;26.80;54.50;;;;;;5095660;28;20098;-77
2021/08/10 12:27:14;;;;;;;0.25;0.00;;;26.90;52.30;;;;;;5095148;28;20030;-77
2021/08/10 12:29:45;;;;;;;0.20;0.10;;;26.80;53.80;;;;;;5074910;28;20027;-77
2021/08/10 12:32:13;;;;;;;0.00;0.00;;;26.80;54.50;;;;;;5075396;28;20067;-77
2021/08/10 12:34:40;;;;;;;0.10;0.00;;;26.70;53.80;;;;;;5075375;28;20021;-77
2021/08/10 12:37:07;;;;;;;0.10;0.10;;;26.70;54.50;;;;;;5074379;28;20028;-77
2021/08/10 12:39:41;;;;;;;0.10;0.00;;;26.80;53.30;;;;;;5055272;28;20037;-77
2021/08/10 12:42:08;;;;;;;0.00;0.00;;;26.70;53.90;;;;;;5073581;28;20070;-77
2021/08/10 12:44:34;;;;;;;0.00;0.00;;;26.80;54.10;;;;;;5075317;28;20059;-77
2021/08/10 12:47:02;;;;;;;0.00;0.00;;;27.00;54.10;;;;;;5069468;28;20021;-77
2021/08/10 12:49:41;;;;;;;0.00;0.00;;;27.10;52.60;;;;;;5056812;28;20082;-77
2021/08/10 12:52:07;;;;;;;0.00;0.00;;;27.20;53.60;;;;;;5057963;28;20029;-77
2021/08/10 12:54:38;;;;;;;0.00;0.00;;;27.20;52.70;;;;;;5073042;28;20042;-77